sensor_id;sensor_type;location;lat;lon;timestamp;temperature;humidity
64874;HTU21D;51367;45.204;38.576;2022-09-21T00:02:05;16.82;71.76
64874;HTU21D;51367;45.204;38.576;2022-09-21T00:04:32;16.81;71.84
64874;HTU21D;51367;45.204;38.576;2022-09-21T00:06:58;16.80;71.92
64874;HTU21D;51367;45.204;38.576;2022-09-21T00:09:24;16.81;72.01
64874;HTU21D;51367;45.204;38.576;2022-09-21T00:11:50;16.80;72.09
64874;HTU21D;51367;45.204;38.576;2022-09-21T00:14:16;16.79;72.16
64874;HTU21D;51367;45.204;38.576;2022-09-21T00:16:44;16.79;72.21
64874;HTU21D;51367;45.204;38.576;2022-09-21T00:19:10;16.78;72.25
64874;HTU21D;51367;45.204;38.576;2022-09-21T00:21:37;16.76;72.35
64874;HTU21D;51367;45.204;38.576;2022-09-21T00:24:04;16.76;72.48
64874;HTU21D;51367;45.204;38.576;2022-09-21T00:26:31;16.77;72.54
64874;HTU21D;51367;45.204;38.576;2022-09-21T00:29:00;16.78;72.62
64874;HTU21D;51367;45.204;38.576;2022-09-21T00:31:27;16.78;72.67
64874;HTU21D;51367;45.204;38.576;2022-09-21T00:33:54;16.78;72.71
64874;HTU21D;51367;45.204;38.576;2022-09-21T00:36:22;16.77;72.80
64874;HTU21D;51367;45.204;38.576;2022-09-21T00:38:55;16.78;72.93
64874;HTU21D;51367;45.204;38.576;2022-09-21T00:41:23;16.75;72.92
64874;HTU21D;51367;45.204;38.576;2022-09-21T00:44:53;16.75;73.26
64874;HTU21D;51367;45.204;38.576;2022-09-21T00:46:56;16.75;73.03
64874;HTU21D;51367;45.204;38.576;2022-09-21T00:49:25;16.74;73.11
64874;HTU21D;51367;45.204;38.576;2022-09-21T00:51:52;16.73;73.19
64874;HTU21D;51367;45.204;38.576;2022-09-21T00:54:29;16.75;73.42
64874;HTU21D;51367;45.204;38.576;2022-09-21T00:56:58;16.75;73.31
64874;HTU21D;51367;45.204;38.576;2022-09-21T00:59:26;16.74;73.37
64874;HTU21D;51367;45.204;38.576;2022-09-21T01:01:52;16.76;73.44
64874;HTU21D;51367;45.204;38.576;2022-09-21T01:04:19;16.77;73.51
64874;HTU21D;51367;45.204;38.576;2022-09-21T01:06:46;16.76;73.58
64874;HTU21D;51367;45.204;38.576;2022-09-21T01:09:14;16.76;73.67
64874;HTU21D;51367;45.204;38.576;2022-09-21T01:17:45;16.70;74.07
64874;HTU21D;51367;45.204;38.576;2022-09-21T01:32:31;16.69;74.17
64874;HTU21D;51367;45.204;38.576;2022-09-21T01:37:13;16.70;74.27
64874;HTU21D;51367;45.204;38.576;2022-09-21T01:39:45;16.70;74.30
64874;HTU21D;51367;45.204;38.576;2022-09-21T01:42:13;16.69;74.34
64874;HTU21D;51367;45.204;38.576;2022-09-21T01:44:42;16.69;74.44
64874;HTU21D;51367;45.204;38.576;2022-09-21T01:47:10;16.67;74.52
64874;HTU21D;51367;45.204;38.576;2022-09-21T01:49:45;16.67;74.63
64874;HTU21D;51367;45.204;38.576;2022-09-21T01:52:24;16.67;74.79
64874;HTU21D;51367;45.204;38.576;2022-09-21T01:54:59;16.67;74.78
64874;HTU21D;51367;45.204;38.576;2022-09-21T01:59:59;16.67;74.78
64874;HTU21D;51367;45.204;38.576;2022-09-21T02:05:12;16.67;74.86
64874;HTU21D;51367;45.204;38.576;2022-09-21T02:07:41;16.69;74.91
64874;HTU21D;51367;45.204;38.576;2022-09-21T02:10:10;16.69;75.01
64874;HTU21D;51367;45.204;38.576;2022-09-21T02:12:38;16.70;75.05
64874;HTU21D;51367;45.204;38.576;2022-09-21T02:15:05;16.67;75.12
64874;HTU21D;51367;45.204;38.576;2022-09-21T02:20:23;16.60;75.41
64874;HTU21D;51367;45.204;38.576;2022-09-21T02:23:13;16.56;75.59
64874;HTU21D;51367;45.204;38.576;2022-09-21T02:28:25;16.56;75.83
64874;HTU21D;51367;45.204;38.576;2022-09-21T02:31:44;16.59;75.79
64874;HTU21D;51367;45.204;38.576;2022-09-21T02:36:46;16.62;75.69
64874;HTU21D;51367;45.204;38.576;2022-09-21T02:39:20;16.63;75.67
64874;HTU21D;51367;45.204;38.576;2022-09-21T02:42:17;16.63;75.71
64874;HTU21D;51367;45.204;38.576;2022-09-21T02:44:53;16.64;75.72
64874;HTU21D;51367;45.204;38.576;2022-09-21T02:47:30;16.62;75.73
64874;HTU21D;51367;45.204;38.576;2022-09-21T02:50:10;16.63;75.77
64874;HTU21D;51367;45.204;38.576;2022-09-21T02:52:40;16.61;75.82
64874;HTU21D;51367;45.204;38.576;2022-09-21T02:55:09;16.62;75.89
64874;HTU21D;51367;45.204;38.576;2022-09-21T02:57:36;16.62;75.94
64874;HTU21D;51367;45.204;38.576;2022-09-21T03:00:04;16.63;75.97
64874;HTU21D;51367;45.204;38.576;2022-09-21T03:02:38;16.63;76.09
64874;HTU21D;51367;45.204;38.576;2022-09-21T03:05:05;16.64;76.06
64874;HTU21D;51367;45.204;38.576;2022-09-21T03:07:32;16.64;76.11
64874;HTU21D;51367;45.204;38.576;2022-09-21T03:09:58;16.65;76.15
64874;HTU21D;51367;45.204;38.576;2022-09-21T03:12:24;16.64;76.19
64874;HTU21D;51367;45.204;38.576;2022-09-21T03:14:52;16.63;76.25
64874;HTU21D;51367;45.204;38.576;2022-09-21T03:17:18;16.63;76.32
64874;HTU21D;51367;45.204;38.576;2022-09-21T03:19:45;16.63;76.39
64874;HTU21D;51367;45.204;38.576;2022-09-21T03:22:10;16.63;76.43
64874;HTU21D;51367;45.204;38.576;2022-09-21T03:24:36;16.64;76.48
64874;HTU21D;51367;45.204;38.576;2022-09-21T03:27:19;16.65;76.57
64874;HTU21D;51367;45.204;38.576;2022-09-21T03:29:47;16.65;76.51
64874;HTU21D;51367;45.204;38.576;2022-09-21T03:32:13;16.65;76.57
64874;HTU21D;51367;45.204;38.576;2022-09-21T03:34:39;16.64;76.61
64874;HTU21D;51367;45.204;38.576;2022-09-21T03:37:07;16.65;76.67
64874;HTU21D;51367;45.204;38.576;2022-09-21T03:39:34;16.64;76.70
64874;HTU21D;51367;45.204;38.576;2022-09-21T03:42:01;16.63;76.76
64874;HTU21D;51367;45.204;38.576;2022-09-21T03:44:28;16.63;76.82
64874;HTU21D;51367;45.204;38.576;2022-09-21T03:46:54;16.63;76.89
64874;HTU21D;51367;45.204;38.576;2022-09-21T03:49:22;16.63;76.92
64874;HTU21D;51367;45.204;38.576;2022-09-21T03:51:48;16.64;76.94
64874;HTU21D;51367;45.204;38.576;2022-09-21T03:54:14;16.65;77.01
64874;HTU21D;51367;45.204;38.576;2022-09-21T03:56:40;16.64;77.07
64874;HTU21D;51367;45.204;38.576;2022-09-21T03:59:06;16.66;77.13
64874;HTU21D;51367;45.204;38.576;2022-09-21T04:01:32;16.69;77.18
64874;HTU21D;51367;45.204;38.576;2022-09-21T04:03:59;16.70;77.24
64874;HTU21D;51367;45.204;38.576;2022-09-21T04:06:24;16.70;77.30
64874;HTU21D;51367;45.204;38.576;2022-09-21T04:08:51;16.72;77.34
64874;HTU21D;51367;45.204;38.576;2022-09-21T04:11:19;16.76;77.39
64874;HTU21D;51367;45.204;38.576;2022-09-21T04:13:51;16.78;77.46
64874;HTU21D;51367;45.204;38.576;2022-09-21T04:16:24;16.78;77.49
64874;HTU21D;51367;45.204;38.576;2022-09-21T04:18:51;16.80;77.47
64874;HTU21D;51367;45.204;38.576;2022-09-21T04:21:18;16.81;77.52
64874;HTU21D;51367;45.204;38.576;2022-09-21T04:23:44;16.82;77.56
64874;HTU21D;51367;45.204;38.576;2022-09-21T04:26:31;16.87;77.77
64874;HTU21D;51367;45.204;38.576;2022-09-21T04:28:58;16.89;77.59
64874;HTU21D;51367;45.204;38.576;2022-09-21T04:31:25;16.91;77.62
64874;HTU21D;51367;45.204;38.576;2022-09-21T04:33:53;16.93;77.66
64874;HTU21D;51367;45.204;38.576;2022-09-21T04:36:21;16.96;77.69
64874;HTU21D;51367;45.204;38.576;2022-09-21T04:38:48;17.00;77.72
64874;HTU21D;51367;45.204;38.576;2022-09-21T04:41:15;17.04;77.77
64874;HTU21D;51367;45.204;38.576;2022-09-21T04:43:42;17.06;77.81
64874;HTU21D;51367;45.204;38.576;2022-09-21T04:46:11;17.10;77.82
64874;HTU21D;51367;45.204;38.576;2022-09-21T04:48:38;17.16;77.82
64874;HTU21D;51367;45.204;38.576;2022-09-21T04:51:05;17.20;77.84
64874;HTU21D;51367;45.204;38.576;2022-09-21T04:53:33;17.24;77.87
64874;HTU21D;51367;45.204;38.576;2022-09-21T04:56:00;17.31;77.88
64874;HTU21D;51367;45.204;38.576;2022-09-21T04:58:26;17.37;77.89
64874;HTU21D;51367;45.204;38.576;2022-09-21T05:00:53;17.43;77.86
64874;HTU21D;51367;45.204;38.576;2022-09-21T05:03:22;17.47;77.81
64874;HTU21D;51367;45.204;38.576;2022-09-21T05:05:51;17.50;77.80
64874;HTU21D;51367;45.204;38.576;2022-09-21T05:08:18;17.52;77.78
64874;HTU21D;51367;45.204;38.576;2022-09-21T05:11:12;17.55;77.71
64874;HTU21D;51367;45.204;38.576;2022-09-21T05:13:39;17.58;77.65
64874;HTU21D;51367;45.204;38.576;2022-09-21T05:16:05;17.59;77.63
64874;HTU21D;51367;45.204;38.576;2022-09-21T05:18:31;17.60;77.62
64874;HTU21D;51367;45.204;38.576;2022-09-21T05:20:59;17.59;77.65
64874;HTU21D;51367;45.204;38.576;2022-09-21T05:23:26;17.59;77.67
64874;HTU21D;51367;45.204;38.576;2022-09-21T05:25:54;17.61;77.78
64874;HTU21D;51367;45.204;38.576;2022-09-21T05:28:21;17.64;77.98
64874;HTU21D;51367;45.204;38.576;2022-09-21T05:31:12;17.67;78.26
64874;HTU21D;51367;45.204;38.576;2022-09-21T05:33:47;17.84;78.61
64874;HTU21D;51367;45.204;38.576;2022-09-21T05:38:59;18.14;77.90
64874;HTU21D;51367;45.204;38.576;2022-09-21T05:41:26;18.21;77.72
64874;HTU21D;51367;45.204;38.576;2022-09-21T05:43:52;18.25;77.56
64874;HTU21D;51367;45.204;38.576;2022-09-21T05:46:28;18.24;77.45
64874;HTU21D;51367;45.204;38.576;2022-09-21T05:49:06;18.23;77.47
64874;HTU21D;51367;45.204;38.576;2022-09-21T05:51:58;18.25;77.57
64874;HTU21D;51367;45.204;38.576;2022-09-21T05:54:49;18.37;77.67
64874;HTU21D;51367;45.204;38.576;2022-09-21T06:00:18;18.64;77.05
64874;HTU21D;51367;45.204;38.576;2022-09-21T06:05:43;18.67;76.85
64874;HTU21D;51367;45.204;38.576;2022-09-21T06:08:09;18.69;76.90
64874;HTU21D;51367;45.204;38.576;2022-09-21T06:10:35;18.74;76.80
64874;HTU21D;51367;45.204;38.576;2022-09-21T06:13:01;18.86;77.07
64874;HTU21D;51367;45.204;38.576;2022-09-21T06:15:27;19.06;77.04
64874;HTU21D;51367;45.204;38.576;2022-09-21T06:17:53;19.09;76.66
64874;HTU21D;51367;45.204;38.576;2022-09-21T06:20:19;19.17;76.61
64874;HTU21D;51367;45.204;38.576;2022-09-21T06:22:45;19.31;76.50
64874;HTU21D;51367;45.204;38.576;2022-09-21T06:25:11;19.54;76.71
64874;HTU21D;51367;45.204;38.576;2022-09-21T06:27:37;19.82;76.21
64874;HTU21D;51367;45.204;38.576;2022-09-21T06:30:03;19.96;75.54
64874;HTU21D;51367;45.204;38.576;2022-09-21T06:32:30;19.91;75.07
64874;HTU21D;51367;45.204;38.576;2022-09-21T06:34:56;19.86;74.92
64874;HTU21D;51367;45.204;38.576;2022-09-21T06:37:22;19.80;74.86
64874;HTU21D;51367;45.204;38.576;2022-09-21T06:39:48;19.74;74.78
64874;HTU21D;51367;45.204;38.576;2022-09-21T06:42:13;19.68;74.69
64874;HTU21D;51367;45.204;38.576;2022-09-21T06:44:40;19.69;74.79
64874;HTU21D;51367;45.204;38.576;2022-09-21T06:47:06;19.76;74.99
64874;HTU21D;51367;45.204;38.576;2022-09-21T06:49:32;19.87;74.75
64874;HTU21D;51367;45.204;38.576;2022-09-21T06:51:58;19.95;74.23
64874;HTU21D;51367;45.204;38.576;2022-09-21T06:54:25;19.92;74.14
64874;HTU21D;51367;45.204;38.576;2022-09-21T06:56:51;19.90;74.06
64874;HTU21D;51367;45.204;38.576;2022-09-21T06:59:17;19.87;73.91
64874;HTU21D;51367;45.204;38.576;2022-09-21T07:01:43;19.83;73.88
64874;HTU21D;51367;45.204;38.576;2022-09-21T07:04:09;19.80;73.83
64874;HTU21D;51367;45.204;38.576;2022-09-21T07:06:35;19.81;73.83
64874;HTU21D;51367;45.204;38.576;2022-09-21T07:09:01;19.88;73.86
64874;HTU21D;51367;45.204;38.576;2022-09-21T07:11:27;20.07;73.67
64874;HTU21D;51367;45.204;38.576;2022-09-21T07:13:54;20.27;73.44
64874;HTU21D;51367;45.204;38.576;2022-09-21T07:16:21;20.43;73.12
64874;HTU21D;51367;45.204;38.576;2022-09-21T07:18:47;20.45;72.32
64874;HTU21D;51367;45.204;38.576;2022-09-21T07:21:13;20.39;72.16
64874;HTU21D;51367;45.204;38.576;2022-09-21T07:23:39;20.31;72.37
64874;HTU21D;51367;45.204;38.576;2022-09-21T07:26:08;20.25;72.19
64874;HTU21D;51367;45.204;38.576;2022-09-21T07:28:35;20.20;72.26
64874;HTU21D;51367;45.204;38.576;2022-09-21T07:31:09;20.26;72.31
64874;HTU21D;51367;45.204;38.576;2022-09-21T07:33:35;20.41;72.43
64874;HTU21D;51367;45.204;38.576;2022-09-21T07:36:02;20.56;72.13
64874;HTU21D;51367;45.204;38.576;2022-09-21T07:38:41;20.77;71.97
64874;HTU21D;51367;45.204;38.576;2022-09-21T07:41:10;20.93;71.26
64874;HTU21D;51367;45.204;38.576;2022-09-21T07:43:37;21.03;70.93
64874;HTU21D;51367;45.204;38.576;2022-09-21T07:46:08;21.06;70.71
64874;HTU21D;51367;45.204;38.576;2022-09-21T07:48:35;21.06;70.26
64874;HTU21D;51367;45.204;38.576;2022-09-21T07:51:02;20.96;70.13
64874;HTU21D;51367;45.204;38.576;2022-09-21T07:53:35;20.87;70.26
64874;HTU21D;51367;45.204;38.576;2022-09-21T07:56:04;20.93;70.45
64874;HTU21D;51367;45.204;38.576;2022-09-21T07:58:30;21.09;70.29
64874;HTU21D;51367;45.204;38.576;2022-09-21T08:01:14;21.29;69.97
64874;HTU21D;51367;45.204;38.576;2022-09-21T08:03:40;21.32;69.48
64874;HTU21D;51367;45.204;38.576;2022-09-21T08:06:07;21.43;69.37
64874;HTU21D;51367;45.204;38.576;2022-09-21T08:08:34;21.61;69.15
64874;HTU21D;51367;45.204;38.576;2022-09-21T08:11:04;21.81;68.77
64874;HTU21D;51367;45.204;38.576;2022-09-21T08:13:31;21.85;67.98
64874;HTU21D;51367;45.204;38.576;2022-09-21T08:15:58;21.72;67.61
64874;HTU21D;51367;45.204;38.576;2022-09-21T08:18:25;21.59;67.94
64874;HTU21D;51367;45.204;38.576;2022-09-21T08:20:58;21.54;67.72
64874;HTU21D;51367;45.204;38.576;2022-09-21T08:23:26;21.55;67.25
64874;HTU21D;51367;45.204;38.576;2022-09-21T08:26:01;21.65;67.45
64874;HTU21D;51367;45.204;38.576;2022-09-21T08:28:28;21.77;66.78
64874;HTU21D;51367;45.204;38.576;2022-09-21T08:31:03;21.79;65.98
64874;HTU21D;51367;45.204;38.576;2022-09-21T08:33:30;21.69;66.52
64874;HTU21D;51367;45.204;38.576;2022-09-21T08:35:58;21.67;66.97
64874;HTU21D;51367;45.204;38.576;2022-09-21T08:38:25;21.69;66.55
64874;HTU21D;51367;45.204;38.576;2022-09-21T08:40:51;21.68;66.17
64874;HTU21D;51367;45.204;38.576;2022-09-21T08:43:42;21.63;66.07
64874;HTU21D;51367;45.204;38.576;2022-09-21T08:46:17;21.62;66.39
64874;HTU21D;51367;45.204;38.576;2022-09-21T08:49:02;21.79;66.50
64874;HTU21D;51367;45.204;38.576;2022-09-21T08:51:31;21.93;66.06
64874;HTU21D;51367;45.204;38.576;2022-09-21T08:54:05;22.02;66.01
64874;HTU21D;51367;45.204;38.576;2022-09-21T08:56:32;22.09;65.62
64874;HTU21D;51367;45.204;38.576;2022-09-21T08:58:59;22.12;65.60
64874;HTU21D;51367;45.204;38.576;2022-09-21T09:09:56;22.65;64.63
64874;HTU21D;51367;45.204;38.576;2022-09-21T09:18:51;22.55;63.56
64874;HTU21D;51367;45.204;38.576;2022-09-21T09:21:24;22.52;63.56
64874;HTU21D;51367;45.204;38.576;2022-09-21T09:23:57;22.48;63.73
64874;HTU21D;51367;45.204;38.576;2022-09-21T09:26:47;22.39;63.14
64874;HTU21D;51367;45.204;38.576;2022-09-21T09:29:25;22.31;63.26
64874;HTU21D;51367;45.204;38.576;2022-09-21T09:31:53;22.24;63.51
64874;HTU21D;51367;45.204;38.576;2022-09-21T09:34:27;22.22;63.48
64874;HTU21D;51367;45.204;38.576;2022-09-21T09:36:59;22.22;63.47
64874;HTU21D;51367;45.204;38.576;2022-09-21T09:39:28;22.18;63.39
64874;HTU21D;51367;45.204;38.576;2022-09-21T09:45:34;22.10;63.25
64874;HTU21D;51367;45.204;38.576;2022-09-21T09:48:46;22.12;63.24
64874;HTU21D;51367;45.204;38.576;2022-09-21T09:51:14;22.17;63.15
64874;HTU21D;51367;45.204;38.576;2022-09-21T09:53:40;22.14;62.68
64874;HTU21D;51367;45.204;38.576;2022-09-21T09:56:08;22.13;62.86
64874;HTU21D;51367;45.204;38.576;2022-09-21T09:58:52;22.19;62.50
64874;HTU21D;51367;45.204;38.576;2022-09-21T10:01:36;22.13;61.63
64874;HTU21D;51367;45.204;38.576;2022-09-21T10:04:05;22.03;62.19
64874;HTU21D;51367;45.204;38.576;2022-09-21T10:06:32;21.94;62.06
64874;HTU21D;51367;45.204;38.576;2022-09-21T10:08:58;21.85;62.15
64874;HTU21D;51367;45.204;38.576;2022-09-21T10:11:34;21.83;61.96
64874;HTU21D;51367;45.204;38.576;2022-09-21T10:14:09;21.79;62.18
64874;HTU21D;51367;45.204;38.576;2022-09-21T10:16:39;21.82;62.18
64874;HTU21D;51367;45.204;38.576;2022-09-21T10:19:15;21.85;62.07
64874;HTU21D;51367;45.204;38.576;2022-09-21T10:21:42;21.85;61.97
64874;HTU21D;51367;45.204;38.576;2022-09-21T10:24:41;21.87;61.83
64874;HTU21D;51367;45.204;38.576;2022-09-21T10:27:22;21.84;61.54
64874;HTU21D;51367;45.204;38.576;2022-09-21T10:29:50;21.78;61.67
64874;HTU21D;51367;45.204;38.576;2022-09-21T10:32:21;21.77;61.63
64874;HTU21D;51367;45.204;38.576;2022-09-21T10:37:28;21.72;61.45
64874;HTU21D;51367;45.204;38.576;2022-09-21T10:39:54;21.68;61.67
64874;HTU21D;51367;45.204;38.576;2022-09-21T10:42:22;21.70;61.48
64874;HTU21D;51367;45.204;38.576;2022-09-21T10:44:51;21.67;61.60
64874;HTU21D;51367;45.204;38.576;2022-09-21T10:47:40;21.70;61.66
64874;HTU21D;51367;45.204;38.576;2022-09-21T10:53:00;21.90;60.23
64874;HTU21D;51367;45.204;38.576;2022-09-21T10:55:28;22.03;60.85
64874;HTU21D;51367;45.204;38.576;2022-09-21T10:57:57;22.18;60.80
64874;HTU21D;51367;45.204;38.576;2022-09-21T11:02:49;22.43;60.19
64874;HTU21D;51367;45.204;38.576;2022-09-21T11:05:36;22.55;59.99
64874;HTU21D;51367;45.204;38.576;2022-09-21T11:10:47;22.64;59.81
64874;HTU21D;51367;45.204;38.576;2022-09-21T11:13:29;22.70;58.94
64874;HTU21D;51367;45.204;38.576;2022-09-21T11:18:59;22.81;57.96
64874;HTU21D;51367;45.204;38.576;2022-09-21T11:21:45;22.73;58.87
64874;HTU21D;51367;45.204;38.576;2022-09-21T11:24:39;22.79;56.30
64874;HTU21D;51367;45.204;38.576;2022-09-21T11:30:14;22.91;57.64
64874;HTU21D;51367;45.204;38.576;2022-09-21T11:46:19;22.87;57.82
64874;HTU21D;51367;45.204;38.576;2022-09-21T12:00:49;22.77;57.10
64874;HTU21D;51367;45.204;38.576;2022-09-21T12:06:13;22.73;56.89
64874;HTU21D;51367;45.204;38.576;2022-09-21T12:19:37;22.87;56.10
64874;HTU21D;51367;45.204;38.576;2022-09-21T12:22:17;22.84;53.91
64874;HTU21D;51367;45.204;38.576;2022-09-21T12:24:49;22.70;55.50
64874;HTU21D;51367;45.204;38.576;2022-09-21T12:27:37;22.57;54.80
64874;HTU21D;51367;45.204;38.576;2022-09-21T12:35:31;22.51;56.05
64874;HTU21D;51367;45.204;38.576;2022-09-21T12:38:25;22.54;56.03
64874;HTU21D;51367;45.204;38.576;2022-09-21T12:40:51;22.54;56.03
64874;HTU21D;51367;45.204;38.576;2022-09-21T12:43:50;22.53;55.74
64874;HTU21D;51367;45.204;38.576;2022-09-21T12:46:29;22.53;56.07
64874;HTU21D;51367;45.204;38.576;2022-09-21T12:48:58;22.58;55.94
64874;HTU21D;51367;45.204;38.576;2022-09-21T12:51:39;22.61;55.50
64874;HTU21D;51367;45.204;38.576;2022-09-21T12:54:30;22.54;55.45
64874;HTU21D;51367;45.204;38.576;2022-09-21T13:10:41;22.21;55.61
64874;HTU21D;51367;45.204;38.576;2022-09-21T13:13:38;22.16;55.66
64874;HTU21D;51367;45.204;38.576;2022-09-21T13:16:04;22.16;55.81
64874;HTU21D;51367;45.204;38.576;2022-09-21T13:18:36;22.11;55.56
64874;HTU21D;51367;45.204;38.576;2022-09-21T13:21:17;22.06;55.53
64874;HTU21D;51367;45.204;38.576;2022-09-21T13:26:41;22.03;55.42
64874;HTU21D;51367;45.204;38.576;2022-09-21T13:34:39;21.77;55.64
64874;HTU21D;51367;45.204;38.576;2022-09-21T13:47:45;21.07;55.41
64874;HTU21D;51367;45.204;38.576;2022-09-21T13:50:47;21.00;55.42
64874;HTU21D;51367;45.204;38.576;2022-09-21T13:53:20;20.93;55.78
64874;HTU21D;51367;45.204;38.576;2022-09-21T13:55:50;20.91;55.81
64874;HTU21D;51367;45.204;38.576;2022-09-21T13:58:25;20.84;55.68
64874;HTU21D;51367;45.204;38.576;2022-09-21T14:00:53;20.76;55.96
64874;HTU21D;51367;45.204;38.576;2022-09-21T14:03:40;20.71;56.09
64874;HTU21D;51367;45.204;38.576;2022-09-21T14:06:14;20.68;56.10
64874;HTU21D;51367;45.204;38.576;2022-09-21T14:11:38;20.50;56.46
64874;HTU21D;51367;45.204;38.576;2022-09-21T14:14:21;20.48;56.55
64874;HTU21D;51367;45.204;38.576;2022-09-21T14:16:50;20.46;56.51
64874;HTU21D;51367;45.204;38.576;2022-09-21T14:24:41;20.18;56.58
64874;HTU21D;51367;45.204;38.576;2022-09-21T14:30:24;20.16;56.55
64874;HTU21D;51367;45.204;38.576;2022-09-21T14:35:33;20.10;56.85
64874;HTU21D;51367;45.204;38.576;2022-09-21T14:38:06;20.11;56.90
64874;HTU21D;51367;45.204;38.576;2022-09-21T14:40:39;20.12;56.92
64874;HTU21D;51367;45.204;38.576;2022-09-21T14:43:15;20.09;56.76
64874;HTU21D;51367;45.204;38.576;2022-09-21T14:48:57;19.76;56.88
64874;HTU21D;51367;45.204;38.576;2022-09-21T14:54:27;19.55;57.42
64874;HTU21D;51367;45.204;38.576;2022-09-21T14:57:02;19.47;57.57
64874;HTU21D;51367;45.204;38.576;2022-09-21T15:02:30;19.30;57.82
64874;HTU21D;51367;45.204;38.576;2022-09-21T15:05:13;19.18;57.85
64874;HTU21D;51367;45.204;38.576;2022-09-21T15:08:09;19.09;58.00
64874;HTU21D;51367;45.204;38.576;2022-09-21T15:11:14;18.99;58.10
64874;HTU21D;51367;45.204;38.576;2022-09-21T15:13:51;18.91;58.25
64874;HTU21D;51367;45.204;38.576;2022-09-21T15:16:40;18.85;58.29
64874;HTU21D;51367;45.204;38.576;2022-09-21T15:21:51;18.68;58.46
64874;HTU21D;51367;45.204;38.576;2022-09-21T15:24:27;18.63;58.57
64874;HTU21D;51367;45.204;38.576;2022-09-21T15:27:08;18.57;58.58
64874;HTU21D;51367;45.204;38.576;2022-09-21T15:29:37;18.49;58.61
64874;HTU21D;51367;45.204;38.576;2022-09-21T15:32:05;18.41;58.70
64874;HTU21D;51367;45.204;38.576;2022-09-21T15:34:31;18.32;58.83
64874;HTU21D;51367;45.204;38.576;2022-09-21T15:37:14;18.24;58.96
64874;HTU21D;51367;45.204;38.576;2022-09-21T15:39:42;18.09;59.14
64874;HTU21D;51367;45.204;38.576;2022-09-21T15:44:35;17.92;59.53
64874;HTU21D;51367;45.204;38.576;2022-09-21T15:47:05;17.85;59.67
64874;HTU21D;51367;45.204;38.576;2022-09-21T15:49:33;17.80;59.70
64874;HTU21D;51367;45.204;38.576;2022-09-21T15:54:51;17.69;59.84
64874;HTU21D;51367;45.204;38.576;2022-09-21T15:57:34;17.60;59.93
64874;HTU21D;51367;45.204;38.576;2022-09-21T16:00:19;17.53;60.09
64874;HTU21D;51367;45.204;38.576;2022-09-21T16:13:39;17.20;60.57
64874;HTU21D;51367;45.204;38.576;2022-09-21T16:16:24;17.09;60.69
64874;HTU21D;51367;45.204;38.576;2022-09-21T16:18:53;17.06;60.83
64874;HTU21D;51367;45.204;38.576;2022-09-21T16:21:26;17.00;60.86
64874;HTU21D;51367;45.204;38.576;2022-09-21T16:23:55;16.98;60.94
64874;HTU21D;51367;45.204;38.576;2022-09-21T16:26:30;16.99;60.96
64874;HTU21D;51367;45.204;38.576;2022-09-21T16:29:22;16.92;61.02
64874;HTU21D;51367;45.204;38.576;2022-09-21T16:31:50;16.88;61.07
64874;HTU21D;51367;45.204;38.576;2022-09-21T16:34:30;16.84;61.24
64874;HTU21D;51367;45.204;38.576;2022-09-21T16:37:17;16.76;61.32
64874;HTU21D;51367;45.204;38.576;2022-09-21T16:39:57;16.65;61.63
64874;HTU21D;51367;45.204;38.576;2022-09-21T16:42:27;16.60;61.73
64874;HTU21D;51367;45.204;38.576;2022-09-21T16:44:58;16.56;61.76
64874;HTU21D;51367;45.204;38.576;2022-09-21T16:47:26;16.51;61.85
64874;HTU21D;51367;45.204;38.576;2022-09-21T16:49:57;16.46;62.06
64874;HTU21D;51367;45.204;38.576;2022-09-21T16:52:27;16.40;62.25
64874;HTU21D;51367;45.204;38.576;2022-09-21T16:54:54;16.36;62.28
64874;HTU21D;51367;45.204;38.576;2022-09-21T16:57:22;16.36;62.28
64874;HTU21D;51367;45.204;38.576;2022-09-21T16:59:48;16.34;62.31
64874;HTU21D;51367;45.204;38.576;2022-09-21T17:02:16;16.29;62.57
64874;HTU21D;51367;45.204;38.576;2022-09-21T17:04:43;16.21;62.47
64874;HTU21D;51367;45.204;38.576;2022-09-21T17:07:12;16.15;62.63
64874;HTU21D;51367;45.204;38.576;2022-09-21T17:09:44;16.12;62.72
64874;HTU21D;51367;45.204;38.576;2022-09-21T17:12:14;16.10;62.76
64874;HTU21D;51367;45.204;38.576;2022-09-21T17:14:40;16.12;62.80
64874;HTU21D;51367;45.204;38.576;2022-09-21T17:17:19;16.13;62.83
64874;HTU21D;51367;45.204;38.576;2022-09-21T17:19:48;16.10;62.85
64874;HTU21D;51367;45.204;38.576;2022-09-21T17:22:15;16.05;62.92
64874;HTU21D;51367;45.204;38.576;2022-09-21T17:24:45;16.03;63.03
64874;HTU21D;51367;45.204;38.576;2022-09-21T17:27:11;16.02;63.14
64874;HTU21D;51367;45.204;38.576;2022-09-21T17:29:38;16.03;63.22
64874;HTU21D;51367;45.204;38.576;2022-09-21T17:32:12;16.07;63.21
64874;HTU21D;51367;45.204;38.576;2022-09-21T17:34:39;16.08;63.18
64874;HTU21D;51367;45.204;38.576;2022-09-21T17:37:07;16.06;63.24
64874;HTU21D;51367;45.204;38.576;2022-09-21T17:39:35;16.00;63.27
64874;HTU21D;51367;45.204;38.576;2022-09-21T17:42:03;15.97;63.35
64874;HTU21D;51367;45.204;38.576;2022-09-21T17:47:21;15.87;63.54
64874;HTU21D;51367;45.204;38.576;2022-09-21T17:49:48;15.85;63.63
64874;HTU21D;51367;45.204;38.576;2022-09-21T17:52:17;15.80;63.66
64874;HTU21D;51367;45.204;38.576;2022-09-21T17:55:03;15.72;63.84
64874;HTU21D;51367;45.204;38.576;2022-09-21T18:00:29;15.66;64.00
64874;HTU21D;51367;45.204;38.576;2022-09-21T18:02:58;15.63;64.00
64874;HTU21D;51367;45.204;38.576;2022-09-21T18:05:29;15.58;64.08
64874;HTU21D;51367;45.204;38.576;2022-09-21T18:07:55;15.55;64.11
64874;HTU21D;51367;45.204;38.576;2022-09-21T18:10:24;15.53;64.18
64874;HTU21D;51367;45.204;38.576;2022-09-21T18:13:23;15.53;64.33
64874;HTU21D;51367;45.204;38.576;2022-09-21T18:16:04;15.48;64.18
64874;HTU21D;51367;45.204;38.576;2022-09-21T18:21:25;15.31;64.47
64874;HTU21D;51367;45.204;38.576;2022-09-21T18:26:48;15.33;64.59
64874;HTU21D;51367;45.204;38.576;2022-09-21T18:29:25;15.34;64.68
64874;HTU21D;51367;45.204;38.576;2022-09-21T18:45:45;15.30;64.82
64874;HTU21D;51367;45.204;38.576;2022-09-21T18:50:58;15.27;64.98
64874;HTU21D;51367;45.204;38.576;2022-09-21T18:53:53;15.22;65.01
64874;HTU21D;51367;45.204;38.576;2022-09-21T18:56:29;15.17;64.98
64874;HTU21D;51367;45.204;38.576;2022-09-21T18:58:56;15.12;65.06
64874;HTU21D;51367;45.204;38.576;2022-09-21T19:01:23;15.07;65.14
64874;HTU21D;51367;45.204;38.576;2022-09-21T19:03:51;15.04;65.17
64874;HTU21D;51367;45.204;38.576;2022-09-21T19:11:37;14.98;65.56
64874;HTU21D;51367;45.204;38.576;2022-09-21T19:17:13;14.99;65.63
64874;HTU21D;51367;45.204;38.576;2022-09-21T19:22:50;15.06;65.79
64874;HTU21D;51367;45.204;38.576;2022-09-21T19:30:40;15.03;65.79
64874;HTU21D;51367;45.204;38.576;2022-09-21T19:33:29;15.03;66.00